Time;durP1;ratioP1;P1;durP2;ratioP2;P2;SDS_P1;SDS_P2;PMS_P1;PMS_P2;Temp;Humidity;BMP_temperature;BMP_pressure;BME280_temperature;BME280_humidity;BME280_pressure;Samples;Min_cycle;Max_cycle;Signal;HPM_P1;HPM_P2
2023/11/20 00:04:28;;;;;;;;;;;;;;;17.09;51.38;98919.53;10329846;28;881;-70
2023/11/20 00:09:24;;;;;;;;;;;;;;;17.07;51.48;98920.53;10330383;28;877;-70
2023/11/20 00:14:21;;;;;;;;;;;;;;;17.06;51.63;98916.22;10329436;28;1885;-70
2023/11/20 00:19:17;;;;;;;;;;;;;;;17.03;51.57;98917.25;10329351;28;825;-70
2023/11/20 00:24:13;;;;;;;;;;;;;;;17.00;51.68;98911.25;10329739;28;869;-70
2023/11/20 00:29:09;;;;;;;;;;;;;;;17.00;51.61;98906.00;10328975;28;1168;-71
2023/11/20 00:34:05;;;;;;;;;;;;;;;16.94;51.53;98901.91;10327504;28;1906;-71
2023/11/20 00:39:01;;;;;;;;;;;;;;;16.96;51.58;98922.91;10328608;28;858;-71
2023/11/20 00:43:59;;;;;;;;;;;;;;;16.92;51.70;98923.97;10328408;28;916;-71
2023/11/20 00:48:55;;;;;;;;;;;;;;;16.89;51.71;98917.09;10328211;28;787;-71
2023/11/20 00:53:51;;;;;;;;;;;;;;;16.85;51.84;98924.31;10327975;28;1893;-70
2023/11/20 00:58:47;;;;;;;;;;;;;;;16.86;51.72;98920.75;10327866;28;958;-70
2023/11/20 01:03:43;;;;;;;;;;;;;;;16.86;51.80;98927.78;10327617;28;856;-70
2023/11/20 01:08:39;;;;;;;;;;;;;;;16.82;51.75;98937.66;10327375;28;861;-71
2023/11/20 01:13:35;;;;;;;;;;;;;;;16.83;51.95;98947.22;10326503;28;1894;-71
2023/11/20 01:18:31;;;;;;;;;;;;;;;16.79;51.88;98936.94;10327782;28;915;-71
2023/11/20 01:23:27;;;;;;;;;;;;;;;16.77;52.05;98933.53;10326767;28;872;-70
2023/11/20 01:28:23;;;;;;;;;;;;;;;16.76;51.85;98932.66;10327081;28;1077;-70
2023/11/20 01:33:19;;;;;;;;;;;;;;;16.75;51.95;98923.06;10326395;28;1957;-71
2023/11/20 01:38:16;;;;;;;;;;;;;;;16.75;51.84;98928.31;10326264;28;810;-71
2023/11/20 01:43:12;;;;;;;;;;;;;;;16.71;51.87;98933.81;10325950;28;877;-70
2023/11/20 01:48:07;;;;;;;;;;;;;;;16.72;52.05;98922.38;10326581;28;877;-70
2023/11/20 01:53:04;;;;;;;;;;;;;;;16.71;51.94;98928.56;10325232;28;1954;-70
2023/11/20 01:57:59;;;;;;;;;;;;;;;16.68;52.25;98929.56;10325744;28;787;-70
2023/11/20 02:02:55;;;;;;;;;;;;;;;16.68;51.97;98926.94;10325644;28;874;-70
2023/11/20 02:07:51;;;;;;;;;;;;;;;16.67;51.97;98929.66;10325713;28;885;-71
2023/11/20 02:12:49;;;;;;;;;;;;;;;16.67;52.13;98932.28;10325933;28;1945;-71
2023/11/20 02:17:45;;;;;;;;;;;;;;;16.62;52.18;98932.53;10325263;28;858;-70
2023/11/20 02:22:40;;;;;;;;;;;;;;;16.63;52.04;98932.41;10325150;28;770;-71
2023/11/20 02:27:39;;;;;;;;;;;;;;;16.61;52.26;98931.69;10325174;28;814;-71
2023/11/20 02:32:35;;;;;;;;;;;;;;;16.62;52.04;98929.88;10325412;28;1961;-71
2023/11/20 02:37:31;;;;;;;;;;;;;;;16.62;52.21;98929.88;10325473;28;855;-70
2023/11/20 02:42:27;;;;;;;;;;;;;;;16.58;51.94;98925.69;10324932;28;841;-71
2023/11/20 02:47:23;;;;;;;;;;;;;;;16.58;52.10;98928.34;10324793;28;964;-71
2023/11/20 02:52:19;;;;;;;;;;;;;;;16.58;52.27;98923.06;10324635;28;1936;-70
2023/11/20 02:57:15;;;;;;;;;;;;;;;16.56;52.37;98917.06;10329110;28;869;-70
2023/11/20 03:02:11;;;;;;;;;;;;;;;16.54;52.06;98921.53;10333735;28;843;-70
2023/11/20 03:07:07;;;;;;;;;;;;;;;16.55;52.27;98918.81;10331983;28;1059;-70
2023/11/20 03:12:04;;;;;;;;;;;;;;;16.54;52.28;98925.03;10332919;28;1949;-70
2023/11/20 03:17:00;;;;;;;;;;;;;;;16.55;52.13;98915.34;10331769;28;818;-71
2023/11/20 03:21:55;;;;;;;;;;;;;;;16.52;52.30;98932.13;10331606;28;798;-70
2023/11/20 03:26:51;;;;;;;;;;;;;;;16.51;52.34;98929.59;10330746;28;822;-71
2023/11/20 03:31:47;;;;;;;;;;;;;;;16.51;52.32;98929.59;10331064;28;1116;-71
2023/11/20 03:36:43;;;;;;;;;;;;;;;16.49;52.38;98929.66;10331221;28;1979;-71
2023/11/20 03:41:39;;;;;;;;;;;;;;;16.51;52.23;98934.84;10331490;28;877;-70
2023/11/20 03:46:35;;;;;;;;;;;;;;;16.48;52.22;98932.34;10330684;28;849;-70
2023/11/20 03:51:31;;;;;;;;;;;;;;;16.48;52.41;98927.09;10331699;28;957;-70
2023/11/20 03:56:27;;;;;;;;;;;;;;;16.47;52.40;98933.31;10329896;28;1959;-70
2023/11/20 04:01:22;;;;;;;;;;;;;;;16.47;52.42;98933.31;10330104;28;1167;-70
2023/11/20 04:06:18;;;;;;;;;;;;;;;16.43;52.45;98943.97;10330464;28;929;-70
2023/11/20 04:11:14;;;;;;;;;;;;;;;16.43;52.28;98932.63;10329859;28;834;-70
2023/11/20 04:16:10;;;;;;;;;;;;;;;16.42;52.29;98944.88;10330127;28;1980;-70
2023/11/20 04:21:06;;;;;;;;;;;;;;;16.42;52.31;98951.94;10329808;28;832;-70
2023/11/20 04:26:02;;;;;;;;;;;;;;;16.41;52.54;98940.56;10329906;28;866;-71
2023/11/20 04:30:58;;;;;;;;;;;;;;;16.40;52.47;98951.16;10328918;28;1363;-71
2023/11/20 04:35:54;;;;;;;;;;;;;;;16.39;52.52;98955.56;10329074;28;1910;-71
2023/11/20 04:40:49;;;;;;;;;;;;;;;16.39;52.32;98952.94;10328636;28;782;-71
2023/11/20 04:45:45;;;;;;;;;;;;;;;16.37;52.33;98953.94;10329051;28;869;-70
2023/11/20 04:50:41;;;;;;;;;;;;;;;16.38;52.61;98947.78;10327682;28;1051;-71
2023/11/20 04:55:37;;;;;;;;;;;;;;;16.49;52.12;98941.97;10327936;28;1960;-71
2023/11/20 05:00:33;;;;;;;;;;;;;;;16.61;52.03;98942.19;10327884;28;833;-72
2023/11/20 05:05:29;;;;;;;;;;;;;;;16.75;51.67;98940.63;10327501;28;810;-71
2023/11/20 05:10:25;;;;;;;;;;;;;;;16.86;51.54;98941.78;10327379;28;806;-71
2023/11/20 05:15:21;;;;;;;;;;;;;;;16.92;51.31;98945.88;10327045;28;1890;-71
2023/11/20 05:20:17;;;;;;;;;;;;;;;16.99;51.27;98942.00;10327106;28;774;-71
2023/11/20 05:25:13;;;;;;;;;;;;;;;17.03;50.95;98943.56;10326642;28;798;-72
2023/11/20 05:30:09;;;;;;;;;;;;;;;17.10;51.06;98944.06;10326696;28;1119;-71
2023/11/20 05:35:05;;;;;;;;;;;;;;;17.15;51.16;98947.31;10326272;28;1914;-70
2023/11/20 05:40:00;;;;;;;;;;;;;;;17.18;51.00;98941.03;10326298;28;997;-73
2023/11/20 05:44:56;;;;;;;;;;;;;;;17.19;51.06;98940.97;10326765;28;993;-71
2023/11/20 05:49:53;;;;;;;;;;;;;;;17.24;51.04;98944.19;10326795;28;810;-71
2023/11/20 05:54:49;;;;;;;;;;;;;;;17.28;50.99;98944.88;10326382;28;1955;-71
2023/11/20 05:59:45;;;;;;;;;;;;;;;17.26;51.08;98947.56;10325723;28;858;-71
2023/11/20 06:04:41;;;;;;;;;;;;;;;17.31;51.06;98948.19;10325589;28;964;-73
2023/11/20 06:09:38;;;;;;;;;;;;;;;17.33;50.97;98949.91;10326385;28;881;-71
2023/11/20 06:14:34;;;;;;;;;;;;;;;17.30;51.10;98959.66;10325413;28;1902;-71
2023/11/20 06:19:30;;;;;;;;;;;;;;;17.25;51.38;98959.06;10325413;28;933;-71
2023/11/20 06:24:26;;;;;;;;;;;;;;;17.21;51.44;98957.53;10326219;28;861;-72
2023/11/20 06:29:22;;;;;;;;;;;;;;;17.19;51.51;98958.56;10325724;28;1168;-71
2023/11/20 06:34:18;;;;;;;;;;;;;;;17.19;51.56;98963.81;10333255;28;1957;-71
2023/11/20 06:39:13;;;;;;;;;;;;;;;17.16;51.52;98970.09;10333361;28;774;-71
2023/11/20 06:44:09;;;;;;;;;;;;;;;17.16;51.73;98979.75;10333744;28;942;-71
2023/11/20 06:49:05;;;;;;;;;;;;;;;17.22;51.48;98990.00;10332707;28;888;-71
2023/11/20 06:54:01;;;;;;;;;;;;;;;17.20;51.77;98997.09;10332732;28;1867;-69
2023/11/20 06:58:57;;;;;;;;;;;;;;;17.18;51.53;98998.97;10333200;28;911;-69
2023/11/20 07:03:55;;;;;;;;;;;;;;;17.20;51.50;98997.09;10332364;28;895;-71
2023/11/20 07:08:52;;;;;;;;;;;;;;;17.20;51.52;99007.66;10332153;28;841;-72
2023/11/20 07:13:48;;;;;;;;;;;;;;;17.23;51.46;99018.00;10331819;28;1951;-71
2023/11/20 07:18:44;;;;;;;;;;;;;;;17.29;51.27;99012.41;10332634;28;948;-71
2023/11/20 07:23:40;;;;;;;;;;;;;;;17.28;51.41;99016.84;10332019;28;845;-71
2023/11/20 07:28:36;;;;;;;;;;;;;;;17.25;51.56;99021.41;10331247;28;1159;-72
2023/11/20 07:33:32;;;;;;;;;;;;;;;17.20;51.52;99019.03;10331229;28;1965;-72
2023/11/20 07:38:28;;;;;;;;;;;;;;;17.20;51.35;99019.03;10331047;28;891;-72
2023/11/20 07:43:23;;;;;;;;;;;;;;;17.16;51.48;99014.88;10331231;28;837;-71
2023/11/20 07:48:19;;;;;;;;;;;;;;;17.14;51.39;99014.09;10330687;28;965;-71
2023/11/20 07:53:15;;;;;;;;;;;;;;;17.15;51.62;99010.50;10330458;28;1898;-72
2023/11/20 07:58:11;;;;;;;;;;;;;;;17.18;51.53;99014.75;10331014;28;811;-71
2023/11/20 08:03:08;;;;;;;;;;;;;;;17.21;51.50;99012.84;10330179;28;869;-71
2023/11/20 08:08:04;;;;;;;;;;;;;;;17.27;51.31;99022.19;10330103;28;818;-71
2023/11/20 08:13:00;;;;;;;;;;;;;;;17.27;51.12;99030.09;10329386;28;1890;-71
2023/11/20 08:17:56;;;;;;;;;;;;;;;17.30;51.21;99036.03;10329634;28;890;-71
2023/11/20 08:22:52;;;;;;;;;;;;;;;17.30;51.31;99032.56;10329383;28;1246;-71
2023/11/20 08:27:49;;;;;;;;;;;;;;;17.34;51.10;99038.50;10330165;28;739;-71
2023/11/20 08:32:45;;;;;;;;;;;;;;;17.38;51.22;99032.16;10329845;28;1914;-71
2023/11/20 08:37:41;;;;;;;;;;;;;;;17.37;51.01;99035.72;10328796;28;851;-70
2023/11/20 08:42:37;;;;;;;;;;;;;;;17.40;51.10;99043.47;10329187;28;853;-70
2023/11/20 08:47:35;;;;;;;;;;;;;;;17.41;50.75;99035.47;10327800;28;877;-72
2023/11/20 08:52:31;;;;;;;;;;;;;;;17.40;50.92;99036.41;10327179;28;1926;-74
2023/11/20 08:57:27;;;;;;;;;;;;;;;17.43;50.88;99036.25;10328730;28;847;-71
2023/11/20 09:02:24;;;;;;;;;;;;;;;17.47;50.73;99047.47;10327800;28;854;-70
2023/11/20 09:07:20;;;;;;;;;;;;;;;17.46;50.74;99035.25;10327744;28;862;-70
2023/11/20 09:12:16;;;;;;;;;;;;;;;17.47;50.78;99037.78;10327318;28;1957;-70
2023/11/20 09:17:13;;;;;;;;;;;;;;;17.50;50.58;99031.50;10327242;28;814;-71
2023/11/20 09:22:09;;;;;;;;;;;;;;;17.50;50.50;99036.75;10327027;28;946;-70
2023/11/20 09:27:05;;;;;;;;;;;;;;;17.49;50.79;99042.97;10326996;28;1046;-70
2023/11/20 09:32:02;;;;;;;;;;;;;;;17.52;50.41;99048.91;10327005;28;1197;-70
2023/11/20 09:36:58;;;;;;;;;;;;;;;17.54;50.49;99046.22;10326999;28;1918;-70
2023/11/20 09:41:54;;;;;;;;;;;;;;;17.51;50.51;99044.59;10326338;28;802;-70
2023/11/20 09:46:50;;;;;;;;;;;;;;;17.53;50.42;99039.25;10326735;28;894;-70
2023/11/20 09:51:46;;;;;;;;;;;;;;;17.57;50.47;99045.19;10326003;28;811;-70
2023/11/20 09:56:42;;;;;;;;;;;;;;;17.53;50.63;99045.38;10326086;28;1878;-70
2023/11/20 10:01:38;;;;;;;;;;;;;;;17.53;50.41;99047.16;10326369;28;792;-70
2023/11/20 10:06:34;;;;;;;;;;;;;;;17.60;50.39;99037.13;10325485;28;911;-70
2023/11/20 10:11:29;;;;;;;;;;;;;;;17.59;50.24;99033.66;10326312;28;917;-70
2023/11/20 10:16:32;;;;;;;;;;;;;;;17.58;50.39;99031.09;10325703;28;1953;-70
2023/11/20 10:21:29;;;;;;;;;;;;;;;17.61;50.27;99039.69;10325979;28;869;-70
2023/11/20 10:26:25;;;;;;;;;;;;;;;17.60;50.15;99029.22;10325858;28;957;-70
2023/11/20 10:31:21;;;;;;;;;;;;;;;17.61;50.38;99028.31;10324947;28;1314;-70
2023/11/20 10:36:17;;;;;;;;;;;;;;;17.63;50.27;99027.28;10325793;28;1906;-71
2023/11/20 10:41:12;;;;;;;;;;;;;;;17.64;50.18;99013.16;10326124;28;1609;-70
2023/11/20 10:46:08;;;;;;;;;;;;;;;17.62;50.30;99009.75;10325493;28;914;-70
2023/11/20 10:51:04;;;;;;;;;;;;;;;17.63;50.25;99010.59;10324940;28;922;-71
2023/11/20 10:56:02;;;;;;;;;;;;;;;17.64;50.13;99018.44;10324639;28;1951;-70
2023/11/20 11:00:58;;;;;;;;;;;;;;;17.62;50.29;99009.75;10324554;28;872;-70
2023/11/20 11:05:54;;;;;;;;;;;;;;;17.61;50.36;99010.72;10324510;28;865;-70
2023/11/20 11:10:50;;;;;;;;;;;;;;;17.64;50.44;99010.53;10324368;28;953;-70
2023/11/20 11:15:46;;;;;;;;;;;;;;;17.64;50.38;99000.00;10324858;28;1957;-70
2023/11/20 11:20:42;;;;;;;;;;;;;;;17.61;50.40;98994.91;10331807;28;863;-70
2023/11/20 11:25:38;;;;;;;;;;;;;;;17.64;50.44;98986.81;10331002;28;782;-70
2023/11/20 11:30:37;;;;;;;;;;;;;;;17.68;50.37;98995.41;10332252;28;1092;-70
2023/11/20 11:35:33;;;;;;;;;;;;;;;17.67;50.32;98985.81;10331708;28;1977;-70
2023/11/20 11:40:29;;;;;;;;;;;;;;;17.73;50.17;98981.03;10331650;28;862;-70
2023/11/20 11:45:27;;;;;;;;;;;;;;;17.79;50.12;98973.72;10330885;28;861;-70
2023/11/20 11:50:22;;;;;;;;;;;;;;;17.78;50.19;98970.22;10330648;28;908;-70
2023/11/20 11:55:20;;;;;;;;;;;;;;;17.75;50.32;98962.50;10330506;28;1890;-70
2023/11/20 12:00:22;;;;;;;;;;;;;;;17.76;50.14;98958.91;10330342;28;934;-71
2023/11/20 12:05:18;;;;;;;;;;;;;;;17.78;50.12;98964.13;10330762;28;856;-70
2023/11/20 12:10:13;;;;;;;;;;;;;;;17.73;50.32;98954.66;10330602;28;814;-71
2023/11/20 12:15:10;;;;;;;;;;;;;;;17.75;50.35;98962.50;10329721;28;1894;-70
2023/11/20 12:20:06;;;;;;;;;;;;;;;17.74;50.44;98943.22;10329638;28;891;-70
2023/11/20 12:25:02;;;;;;;;;;;;;;;17.74;50.34;98945.84;10328855;28;889;-70
2023/11/20 12:29:58;;;;;;;;;;;;;;;17.78;50.32;98940.41;10329372;28;1322;-70
2023/11/20 12:34:54;;;;;;;;;;;;;;;17.78;50.30;98945.66;10329567;28;1910;-70
2023/11/20 12:39:49;;;;;;;;;;;;;;;17.75;50.26;98936.16;10328832;28;834;-71
2023/11/20 12:44:45;;;;;;;;;;;;;;;17.73;50.33;98928.31;10329205;28;892;-71
2023/11/20 12:49:43;;;;;;;;;;;;;;;17.77;50.29;98930.81;10329062;28;810;-70
2023/11/20 12:54:39;;;;;;;;;;;;;;;17.75;50.31;98926.44;10328113;28;1890;-70
2023/11/20 12:59:35;;;;;;;;;;;;;;;17.76;50.24;98929.94;10327365;28;1052;-71
2023/11/20 13:04:32;;;;;;;;;;;;;;;17.75;50.50;98926.44;10327646;28;818;-71
2023/11/20 13:09:29;;;;;;;;;;;;;;;17.76;50.46;98927.28;10324709;28;1081;-71
2023/11/20 13:14:25;;;;;;;;;;;;;;;17.79;50.51;98921.00;10326727;28;1955;-71
2023/11/20 13:19:21;;;;;;;;;;;;;;;17.78;50.51;98922.78;10327016;28;967;-71
2023/11/20 13:24:17;;;;;;;;;;;;;;;17.83;50.21;98923.41;10327009;28;771;-70
2023/11/20 13:29:12;;;;;;;;;;;;;;;17.80;50.36;98923.59;10326159;28;1106;-71
2023/11/20 13:34:08;;;;;;;;;;;;;;;17.79;50.45;98927.19;10327148;28;1965;-70
2023/11/20 13:39:07;;;;;;;;;;;;;;;17.83;50.41;98919.94;10326064;28;766;-71
2023/11/20 13:44:03;;;;;;;;;;;;;;;17.86;50.37;98896.88;10326278;28;848;-71
2023/11/20 13:49:00;;;;;;;;;;;;;;;17.82;50.35;98908.53;10326595;28;1174;-70
2023/11/20 13:53:57;;;;;;;;;;;;;;;17.83;50.28;98907.59;10326032;28;1914;-71
2023/11/20 13:58:53;;;;;;;;;;;;;;;17.84;50.34;98905.81;10326489;28;866;-70
2023/11/20 14:03:49;;;;;;;;;;;;;;;17.82;50.46;98910.34;10325788;28;1030;-70
2023/11/20 14:08:44;;;;;;;;;;;;;;;17.83;50.35;98904.97;10326216;28;870;-71
2023/11/20 14:13:40;;;;;;;;;;;;;;;17.84;50.05;98890.88;10325503;28;1918;-71
2023/11/20 14:18:36;;;;;;;;;;;;;;;17.84;50.36;98897.91;10325483;28;838;-70
2023/11/20 14:23:33;;;;;;;;;;;;;;;17.79;50.14;98895.53;10325322;28;879;-71
2023/11/20 14:28:29;;;;;;;;;;;;;;;17.83;50.15;98893.56;10325977;28;1122;-70
2023/11/20 14:33:25;;;;;;;;;;;;;;;17.84;50.24;98900.53;10325382;28;1910;-71
2023/11/20 14:38:21;;;;;;;;;;;;;;;17.81;50.21;98895.44;10325083;28;926;-71
2023/11/20 14:43:18;;;;;;;;;;;;;;;17.83;50.00;98894.41;10325583;28;876;-70
2023/11/20 14:48:13;;;;;;;;;;;;;;;17.86;50.10;98896.03;10324848;28;935;-71
2023/11/20 14:53:10;;;;;;;;;;;;;;;17.82;50.10;98899.78;10329774;28;1886;-71
2023/11/20 14:58:06;;;;;;;;;;;;;;;17.80;50.23;98904.28;10333641;28;850;-70
2023/11/20 15:03:02;;;;;;;;;;;;;;;17.83;50.07;98906.75;10333470;28;830;-71
2023/11/20 15:07:58;;;;;;;;;;;;;;;17.75;50.38;98909.78;10331735;28;981;-69
2023/11/20 15:12:54;;;;;;;;;;;;;;;17.78;50.17;98908.75;10332376;28;1894;-71
2023/11/20 15:17:51;;;;;;;;;;;;;;;17.79;50.09;98913.09;10331306;28;842;-71
2023/11/20 15:22:47;;;;;;;;;;;;;;;17.80;50.35;98907.78;10332313;28;919;-71
2023/11/20 15:27:43;;;;;;;;;;;;;;;17.79;50.30;98906.09;10332178;28;997;-71
2023/11/20 15:32:39;;;;;;;;;;;;;;;17.76;50.32;98900.94;10331090;28;1906;-71
2023/11/20 15:37:34;;;;;;;;;;;;;;;17.80;50.22;98912.22;10327236;28;967;-71
2023/11/20 15:42:30;;;;;;;;;;;;;;;17.81;50.29;98909.47;10330665;28;774;-71
2023/11/20 15:47:26;;;;;;;;;;;;;;;17.82;50.40;98916.44;10330753;28;866;-72
2023/11/20 15:52:22;;;;;;;;;;;;;;;17.82;50.28;98910.34;10330399;28;1910;-71
2023/11/20 15:57:18;;;;;;;;;;;;;;;17.84;50.33;98908.44;10330403;28;866;-71
2023/11/20 16:02:14;;;;;;;;;;;;;;;17.82;50.47;98912.97;10329165;28;921;-72
2023/11/20 16:07:10;;;;;;;;;;;;;;;17.84;50.43;98924.25;10330165;28;879;-71
2023/11/20 16:12:06;;;;;;;;;;;;;;;17.86;50.24;98917.13;10330626;28;917;-71
2023/11/20 16:17:02;;;;;;;;;;;;;;;17.85;50.51;98925.97;10329674;28;1894;-71
2023/11/20 16:21:58;;;;;;;;;;;;;;;17.84;50.36;98932.16;10329559;28;762;-71
2023/11/20 16:26:54;;;;;;;;;;;;;;;17.87;50.46;98924.09;10329882;28;865;-71
2023/11/20 16:31:55;;;;;;;;;;;;;;;17.85;50.27;98923.34;10329521;28;1203;-72
2023/11/20 16:36:51;;;;;;;;;;;;;;;17.88;50.36;98920.53;10329542;28;1918;-71
2023/11/20 16:41:46;;;;;;;;;;;;;;;17.87;50.48;98929.38;10328746;28;764;-71
2023/11/20 16:46:42;;;;;;;;;;;;;;;17.87;50.51;98937.28;10329343;28;783;-71
2023/11/20 16:51:38;;;;;;;;;;;;;;;17.86;50.48;98935.56;10328561;28;822;-71
2023/11/20 16:56:34;;;;;;;;;;;;;;;17.90;50.34;98942.38;10328776;28;1894;-71
2023/11/20 17:01:30;;;;;;;;;;;;;;;17.92;50.28;98938.72;10328565;28;766;-71
2023/11/20 17:06:26;;;;;;;;;;;;;;;17.87;50.55;98934.66;10328975;28;917;-71
2023/11/20 17:11:22;;;;;;;;;;;;;;;17.90;50.45;98950.28;10327506;28;968;-70
2023/11/20 17:16:18;;;;;;;;;;;;;;;17.86;50.46;98944.31;10326547;28;1893;-71
2023/11/20 17:21:14;;;;;;;;;;;;;;;17.84;50.39;98937.44;10327191;28;1535;-71
2023/11/20 17:26:11;;;;;;;;;;;;;;;17.79;50.57;98942.09;10327563;28;902;-70
2023/11/20 17:31:08;;;;;;;;;;;;;;;17.74;50.55;98935.31;10326928;28;1108;-71
2023/11/20 17:36:06;;;;;;;;;;;;;;;17.75;50.51;98934.34;10326539;28;1902;-71
2023/11/20 17:41:02;;;;;;;;;;;;;;;17.74;50.41;98937.94;10326440;28;783;-71
2023/11/20 17:45:58;;;;;;;;;;;;;;;17.75;50.60;98928.25;10326340;28;865;-71
2023/11/20 17:50:54;;;;;;;;;;;;;;;17.79;50.65;98936.81;10327183;28;819;-71
2023/11/20 17:55:50;;;;;;;;;;;;;;;17.81;50.58;98942.88;10325983;28;1897;-71
2023/11/20 18:00:46;;;;;;;;;;;;;;;17.79;50.57;98948.25;10325915;28;814;-71
2023/11/20 18:05:42;;;;;;;;;;;;;;;17.82;50.39;98948.09;10325784;28;850;-71
2023/11/20 18:10:38;;;;;;;;;;;;;;;17.85;50.21;98958.44;10325064;28;888;-71
2023/11/20 18:15:34;;;;;;;;;;;;;;;17.88;50.23;98957.44;10325996;28;1886;-71
2023/11/20 18:20:30;;;;;;;;;;;;;;;17.92;50.20;98956.31;10325994;28;1025;-71
2023/11/20 18:25:28;;;;;;;;;;;;;;;17.91;50.47;98946.72;10325727;28;774;-70
2023/11/20 18:30:24;;;;;;;;;;;;;;;17.92;50.30;98958.94;10324740;28;1460;-70
2023/11/20 18:35:19;;;;;;;;;;;;;;;17.95;50.30;98954.38;10325700;28;1886;-71
2023/11/20 18:40:18;;;;;;;;;;;;;;;17.96;50.38;98965.75;10325624;28;853;-71
2023/11/20 18:45:14;;;;;;;;;;;;;;;17.95;50.15;98958.78;10324894;28;870;-71
2023/11/20 18:50:10;;;;;;;;;;;;;;;17.98;50.22;98963.88;10324919;28;811;-71
2023/11/20 18:55:07;;;;;;;;;;;;;;;17.98;50.35;98969.16;10325454;28;1947;-71
2023/11/20 19:00:06;;;;;;;;;;;;;;;17.96;50.24;98953.41;10324642;28;834;-71
2023/11/20 19:05:04;;;;;;;;;;;;;;;18.01;50.10;98949.69;10324548;28;846;-71
2023/11/20 19:09:59;;;;;;;;;;;;;;;18.01;50.10;98947.88;10325371;28;869;-70
2023/11/20 19:14:56;;;;;;;;;;;;;;;18.01;50.20;98954.97;10324518;28;1898;-71
2023/11/20 19:19:52;;;;;;;;;;;;;;;18.03;50.14;98958.38;10324496;28;756;-71
2023/11/20 19:24:48;;;;;;;;;;;;;;;18.04;50.20;98958.25;10324841;28;880;-71
2023/11/20 19:29:43;;;;;;;;;;;;;;;18.03;50.09;98955.72;10323960;28;1101;-71
2023/11/20 19:34:39;;;;;;;;;;;;;;;18.00;50.23;98964.66;10323969;28;1967;-72
2023/11/20 19:39:35;;;;;;;;;;;;;;;18.02;50.20;98965.41;10329248;28;786;-71
2023/11/20 19:44:31;;;;;;;;;;;;;;;18.01;50.08;98953.16;10331042;28;744;-71
2023/11/20 19:49:27;;;;;;;;;;;;;;;18.05;50.03;98953.81;10331551;28;914;-71
2023/11/20 19:54:23;;;;;;;;;;;;;;;18.07;49.93;98968.63;10330056;28;1890;-71
2023/11/20 19:59:19;;;;;;;;;;;;;;;18.09;49.95;98968.56;10330608;28;758;-71
2023/11/20 20:04:15;;;;;;;;;;;;;;;18.05;50.17;98959.97;10330330;28;853;-71
2023/11/20 20:09:11;;;;;;;;;;;;;;;18.08;50.16;98970.34;10330989;28;818;-71
2023/11/20 20:14:07;;;;;;;;;;;;;;;18.07;50.18;98960.72;10330019;28;1889;-71
2023/11/20 20:19:03;;;;;;;;;;;;;;;18.07;50.12;98959.88;10330316;28;869;-70
2023/11/20 20:23:59;;;;;;;;;;;;;;;18.09;49.97;98963.28;10330257;28;835;-71
2023/11/20 20:28:55;;;;;;;;;;;;;;;18.08;50.29;98959.78;10329038;28;1307;-71
2023/11/20 20:33:51;;;;;;;;;;;;;;;18.07;50.13;98968.63;10329669;28;1883;-71
2023/11/20 20:38:47;;;;;;;;;;;;;;;18.07;50.08;98975.69;10329597;28;860;-71
2023/11/20 20:43:43;;;;;;;;;;;;;;;18.01;50.27;98971.63;10328268;28;925;-71
2023/11/20 20:48:39;;;;;;;;;;;;;;;18.02;50.25;98973.31;10328176;28;951;-71
2023/11/20 20:53:35;;;;;;;;;;;;;;;18.03;50.23;98979.47;10328897;28;1894;-71
2023/11/20 20:58:31;;;;;;;;;;;;;;;18.00;50.16;98980.47;10328149;28;965;-71
2023/11/20 21:03:27;;;;;;;;;;;;;;;17.98;50.38;98987.63;10328756;28;875;-71
2023/11/20 21:08:23;;;;;;;;;;;;;;;18.01;50.16;98989.25;10327868;28;885;-71
2023/11/20 21:13:19;;;;;;;;;;;;;;;18.01;50.21;98982.16;10328620;28;2245;-71
2023/11/20 21:18:15;;;;;;;;;;;;;;;17.98;50.29;99000.81;10327591;28;841;-71
2023/11/20 21:23:11;;;;;;;;;;;;;;;17.96;50.18;98990.31;10326587;28;829;-71
2023/11/20 21:28:09;;;;;;;;;;;;;;;17.95;50.26;98996.56;10327162;28;942;-71
2023/11/20 21:33:05;;;;;;;;;;;;;;;17.98;50.28;99006.06;10327009;28;1902;-71
2023/11/20 21:38:03;;;;;;;;;;;;;;;17.95;50.29;98990.44;10327286;28;831;-71
2023/11/20 21:42:58;;;;;;;;;;;;;;;17.93;50.26;98987.88;10326354;28;1601;-71
2023/11/20 21:47:54;;;;;;;;;;;;;;;17.93;50.38;98987.88;10326908;28;865;-71
2023/11/20 21:52:51;;;;;;;;;;;;;;;17.94;50.34;98996.63;10326002;28;1961;-71
2023/11/20 21:57:47;;;;;;;;;;;;;;;17.93;50.42;99000.22;10326664;28;802;-71
2023/11/20 22:02:43;;;;;;;;;;;;;;;17.92;50.51;99003.75;10326076;28;750;-71
2023/11/20 22:07:39;;;;;;;;;;;;;;;17.91;50.47;99007.34;10326408;28;873;-71
2023/11/20 22:12:38;;;;;;;;;;;;;;;17.86;50.72;99012.03;10326141;28;1902;-71
2023/11/20 22:17:33;;;;;;;;;;;;;;;17.86;50.69;99009.38;10325779;28;1000;-71
2023/11/20 22:22:29;;;;;;;;;;;;;;;17.85;50.45;99011.19;10326075;28;1020;-71
2023/11/20 22:27:25;;;;;;;;;;;;;;;17.84;50.54;99024.44;10325382;28;929;-71
2023/11/20 22:32:21;;;;;;;;;;;;;;;17.84;50.53;99032.34;10325674;28;1111;-71
2023/11/20 22:37:17;;;;;;;;;;;;;;;17.81;50.79;99036.00;10325235;28;1977;-71
2023/11/20 22:42:13;;;;;;;;;;;;;;;17.80;50.60;99038.72;10325055;28;855;-70
2023/11/20 22:47:09;;;;;;;;;;;;;;;17.79;50.76;99043.16;10324399;28;861;-70
2023/11/20 22:52:05;;;;;;;;;;;;;;;17.78;50.83;99045.84;10325417;28;806;-70
2023/11/20 22:57:01;;;;;;;;;;;;;;;17.77;50.75;99050.25;10324745;28;1961;-70
2023/11/20 23:01:57;;;;;;;;;;;;;;;17.75;50.71;99062.66;10324674;28;873;-71
2023/11/20 23:06:53;;;;;;;;;;;;;;;17.77;50.50;99062.59;10325790;28;888;-71
2023/11/20 23:11:49;;;;;;;;;;;;;;;17.74;50.86;99061.81;10325011;28;857;-71
2023/11/20 23:16:45;;;;;;;;;;;;;;;17.71;50.82;99071.66;10332138;28;1898;-71
2023/11/20 23:21:41;;;;;;;;;;;;;;;17.72;50.76;99076.00;10332503;28;831;-71
2023/11/20 23:26:37;;;;;;;;;;;;;;;17.72;50.76;99079.50;10331169;28;830;-71
2023/11/20 23:31:35;;;;;;;;;;;;;;;17.71;50.67;99082.19;10331462;28;1153;-70
2023/11/20 23:36:31;;;;;;;;;;;;;;;17.70;50.86;99077.88;10331240;28;1973;-71
2023/11/20 23:41:27;;;;;;;;;;;;;;;17.68;50.88;99079.72;10331783;28;905;-71
2023/11/20 23:46:24;;;;;;;;;;;;;;;17.69;50.90;99081.47;10331602;28;873;-71
2023/11/20 23:51:20;;;;;;;;;;;;;;;17.68;50.86;99088.50;10331127;28;795;-71
2023/11/20 23:56:16;;;;;;;;;;;;;;;17.67;50.68;99086.78;10330642;28;1943;-71
